Time;durP1;ratioP1;P1;durP2;ratioP2;P2;SDS_P1;SDS_P2;PMS_P1;PMS_P2;Temp;Humidity;BMP_temperature;BMP_pressure;BME280_temperature;BME280_humidity;BME280_pressure;Samples;Min_cycle;Max_cycle;Signal;HPM_P1;HPM_P2
2021/04/12 00:01:11;;;;;;;3.60;3.40;;;8.30;49.40;;;;;;5071622;28;20409;-67
2021/04/12 00:04:03;;;;;;;3.57;3.37;;;8.10;48.50;;;;;;5071610;28;20815;-67
2021/04/12 00:06:44;;;;;;;3.10;3.00;;;8.00;49.00;;;;;;5054929;28;20438;-67
2021/04/12 00:09:20;;;;;;;3.30;3.20;;;8.20;49.90;;;;;;5051346;28;20965;-67
2021/04/12 00:11:58;;;;;;;3.50;3.30;;;8.10;47.70;;;;;;5051607;28;20410;-67
2021/04/12 00:14:42;;;;;;;3.53;3.33;;;7.90;47.90;;;;;;5051181;28;20919;-67
2021/04/12 00:17:34;;;;;;;3.97;3.77;;;8.10;48.40;;;;;;5051576;28;20484;-67
2021/04/12 00:20:23;;;;;;;3.97;3.67;;;8.10;48.40;;;;;;5037029;28;20495;-67
2021/04/12 00:23:07;;;;;;;3.90;3.70;;;8.10;49.00;;;;;;5033488;28;20496;-67
2021/04/12 00:25:54;;;;;;;3.87;3.67;;;8.00;47.60;;;;;;5051453;28;20791;-67
2021/04/12 00:28:33;;;;;;;3.70;3.50;;;7.70;47.70;;;;;;5051153;28;20450;-67
2021/04/12 00:31:17;;;;;;;3.90;3.70;;;7.70;48.60;;;;;;5054229;28;20406;-67
2021/04/12 00:33:58;;;;;;;3.70;3.50;;;7.50;47.60;;;;;;5055527;28;20410;-67
2021/04/12 00:36:39;;;;;;;3.70;3.50;;;7.60;49.00;;;;;;5055396;28;20438;-67
2021/04/12 00:39:12;;;;;;;4.80;4.50;;;7.50;49.40;;;;;;5055269;28;20460;-67
2021/04/12 00:42:01;;;;;;;3.40;3.20;;;7.60;49.80;;;;;;5071961;28;20933;-67
2021/04/12 00:44:27;;;;;;;4.20;3.90;;;7.70;49.50;;;;;;5054955;28;20994;-67
2021/04/12 00:47:21;;;;;;;4.93;4.63;;;7.50;47.90;;;;;;5070062;28;20527;-67
2021/04/12 00:50:00;;;;;;;4.30;4.00;;;7.60;49.40;;;;;;5055038;28;20698;-67
2021/04/12 00:52:54;;;;;;;3.77;3.57;;;7.60;49.00;;;;;;5055856;28;20405;-67
2021/04/12 00:55:19;;;;;;;3.80;3.60;;;7.70;49.30;;;;;;5074422;28;20605;-67
2021/04/12 00:58:01;;;;;;;4.30;4.00;;;7.60;48.60;;;;;;5074740;28;20439;-68
2021/04/12 01:00:37;;;;;;;4.40;4.03;;;7.50;48.70;;;;;;5074758;28;20174;-67
2021/04/12 01:03:28;;;;;;;3.70;3.50;;;7.50;49.20;;;;;;5074831;28;20456;-67
2021/04/12 01:06:06;;;;;;;4.40;4.00;;;7.50;48.20;;;;;;5070060;28;20525;-67
2021/04/12 01:08:49;;;;;;;4.40;4.20;;;7.30;47.40;;;;;;5054550;28;20473;-67
2021/04/12 01:11:37;;;;;;;4.33;4.07;;;7.20;48.30;;;;;;5054565;28;20489;-67
2021/04/12 01:14:21;;;;;;;4.87;4.47;;;7.30;51.10;;;;;;5054530;28;20401;-67
2021/04/12 01:17:11;;;;;;;5.27;4.97;;;7.50;50.80;;;;;;5054370;28;20922;-67
2021/04/12 01:19:56;;;;;;;4.30;4.10;;;7.40;49.20;;;;;;5054397;28;20406;-67
2021/04/12 01:22:44;;;;;;;4.10;3.90;;;7.50;48.40;;;;;;5037312;28;20934;-68
2021/04/12 01:25:47;;;;;;;4.17;3.90;;;7.60;46.80;;;;;;5054018;28;21132;-68
2021/04/12 01:28:42;;;;;;;4.37;4.17;;;7.40;47.40;;;;;;5070084;28;20449;-68
2021/04/12 01:31:44;;;;;;;4.53;4.13;;;7.50;48.20;;;;;;5074028;28;20405;-68
2021/04/12 01:34:28;;;;;;;4.50;4.30;;;7.40;47.30;;;;;;5072414;28;20417;-68
2021/04/12 01:37:31;;;;;;;4.97;4.67;;;7.30;47.50;;;;;;5054996;28;21139;-68
2021/04/12 01:40:43;;;;;;;4.03;3.73;;;7.40;48.10;;;;;;5071876;28;20448;-67
2021/04/12 01:43:45;;;;;;;5.30;4.80;;;7.30;47.10;;;;;;5060952;28;20402;-67
2021/04/12 01:46:28;;;;;;;4.93;4.63;;;7.30;47.60;;;;;;5058353;28;20574;-67
2021/04/12 01:49:13;;;;;;;5.00;4.60;;;7.30;48.20;;;;;;5073992;28;20495;-67
2021/04/12 01:52:09;;;;;;;5.30;5.00;;;7.30;48.30;;;;;;5073826;28;20417;-67
2021/04/12 01:55:01;;;;;;;4.70;4.40;;;7.10;47.40;;;;;;5073882;28;20436;-67
2021/04/12 01:57:48;;;;;;;4.83;4.53;;;7.00;47.80;;;;;;5073970;28;20419;-67
2021/04/12 02:00:50;;;;;;;5.33;5.03;;;7.10;48.90;;;;;;5072417;28;20797;-67
2021/04/12 02:03:24;;;;;;;5.50;5.10;;;7.10;49.00;;;;;;5053825;28;20431;-67
2021/04/12 02:06:02;;;;;;;5.00;4.70;;;7.10;48.00;;;;;;5053350;28;20417;-67
2021/04/12 02:09:02;;;;;;;4.30;4.10;;;7.10;48.20;;;;;;5053519;28;20458;-67
2021/04/12 02:11:34;;;;;;;5.03;4.70;;;7.20;47.40;;;;;;5053477;28;20406;-67
2021/04/12 02:14:29;;;;;;;5.00;4.60;;;7.20;47.80;;;;;;5053458;28;20394;-67
2021/04/12 02:17:13;;;;;;;4.87;4.57;;;7.20;48.60;;;;;;5053251;28;20432;-67
2021/04/12 02:20:06;;;;;;;5.40;5.10;;;7.20;47.80;;;;;;5053485;28;20825;-67
2021/04/12 02:23:09;;;;;;;5.47;5.00;;;7.10;49.10;;;;;;5053326;28;20445;-67
2021/04/12 02:26:01;;;;;;;5.20;4.90;;;7.00;47.90;;;;;;5052941;28;20445;-67
2021/04/12 02:29:09;;;;;;;4.83;4.53;;;7.10;48.30;;;;;;5053215;28;20860;-67
2021/04/12 02:31:41;;;;;;;5.70;5.23;;;7.10;47.40;;;;;;5053029;28;20425;-67
2021/04/12 02:34:44;;;;;;;5.63;5.23;;;7.00;47.80;;;;;;5052968;28;20835;-67
2021/04/12 02:37:47;;;;;;;5.17;4.90;;;7.00;47.60;;;;;;5053041;28;20805;-67
2021/04/12 02:40:41;;;;;;;5.83;5.43;;;6.80;49.70;;;;;;5052724;28;20405;-67
2021/04/12 02:43:44;;;;;;;5.70;5.30;;;7.00;47.70;;;;;;5051966;28;20775;-67
2021/04/12 02:46:09;;;;;;;5.90;5.50;;;7.10;47.90;;;;;;5052375;28;20499;-68
2021/04/12 02:48:57;;;;;;;6.97;6.47;;;7.20;46.90;;;;;;5052789;28;20461;-68
2021/04/12 02:51:44;;;;;;;6.60;6.20;;;7.30;47.50;;;;;;5052711;28;20203;-68
2021/04/12 02:54:33;;;;;;;5.60;5.20;;;7.20;46.70;;;;;;5052097;28;20926;-68
2021/04/12 02:57:36;;;;;;;6.10;5.70;;;7.20;48.40;;;;;;5052628;28;20434;-68
2021/04/12 03:00:26;;;;;;;5.60;5.20;;;7.20;47.60;;;;;;5052728;28;20513;-68
2021/04/12 03:03:23;;;;;;;6.03;5.57;;;7.30;46.60;;;;;;5052761;28;20754;-68
2021/04/12 03:06:10;;;;;;;5.80;5.40;;;7.30;46.10;;;;;;5052255;28;20444;-68
2021/04/12 03:09:08;;;;;;;6.93;6.43;;;7.10;47.20;;;;;;5052489;28;20466;-68
2021/04/12 03:11:54;;;;;;;5.60;5.30;;;7.10;47.30;;;;;;5052577;28;20395;-68
2021/04/12 03:14:41;;;;;;;4.90;4.53;;;7.00;48.20;;;;;;5052282;28;20445;-68
2021/04/12 03:17:39;;;;;;;6.27;5.87;;;7.00;46.40;;;;;;5034383;28;20416;-68
2021/04/12 03:20:11;;;;;;;5.10;4.70;;;7.00;46.50;;;;;;5052265;28;20409;-68
2021/04/12 03:23:03;;;;;;;6.00;5.60;;;6.90;48.70;;;;;;5052344;28;20428;-68
2021/04/12 03:26:01;;;;;;;5.00;4.70;;;6.90;48.70;;;;;;5053238;28;20514;-68
2021/04/12 03:28:39;;;;;;;5.70;5.30;;;6.90;48.60;;;;;;5052047;28;20464;-68
2021/04/12 03:31:27;;;;;;;5.40;5.10;;;6.80;48.80;;;;;;5065245;28;20457;-68
2021/04/12 03:34:03;;;;;;;9.30;8.40;;;6.90;48.70;;;;;;5071912;28;20852;-67
2021/04/12 03:37:02;;;;;;;6.00;4.90;;;6.80;47.70;;;;;;5071881;28;20432;-66
2021/04/12 03:39:45;;;;;;;6.03;5.53;;;6.90;48.00;;;;;;5052235;28;20461;-67
2021/04/12 03:42:49;;;;;;;5.97;5.67;;;6.80;47.00;;;;;;5051789;28;20852;-67
2021/04/12 03:45:25;;;;;;;5.77;5.37;;;6.90;48.10;;;;;;5051622;28;20892;-67
2021/04/12 03:48:44;;;;;;;5.93;5.53;;;6.90;49.80;;;;;;5054983;28;20497;-66
2021/04/12 03:51:34;;;;;;;6.10;5.70;;;7.10;48.90;;;;;;4990296;28;20424;-68
2021/04/12 03:54:30;;;;;;;6.20;5.70;;;7.00;46.00;;;;;;5067682;28;20447;-68
2021/04/12 03:57:20;;;;;;;6.87;6.20;;;7.00;46.90;;;;;;5071636;28;20436;-68
2021/04/12 04:00:08;;;;;;;6.00;5.60;;;6.90;47.20;;;;;;5053788;28;20424;-68
2021/04/12 04:02:57;;;;;;;5.93;5.63;;;6.90;47.80;;;;;;5071830;28;20439;-68
2021/04/12 04:05:34;;;;;;;6.47;6.07;;;7.00;47.60;;;;;;5071498;28;20520;-68
2021/04/12 04:08:14;;;;;;;7.07;6.57;;;7.00;47.50;;;;;;5071613;28;21041;-68
2021/04/12 04:10:57;;;;;;;7.37;6.87;;;7.10;46.90;;;;;;5069713;28;20483;-68
2021/04/12 04:13:42;;;;;;;7.10;6.60;;;7.10;47.80;;;;;;5069427;28;20820;-68
2021/04/12 04:16:13;;;;;;;7.63;7.03;;;7.00;48.20;;;;;;5071404;28;20424;-68
2021/04/12 04:18:52;;;;;;;7.13;6.63;;;7.10;46.70;;;;;;5071546;28;20400;-67
2021/04/12 04:21:18;;;;;;;6.80;6.30;;;7.20;46.00;;;;;;5070895;28;20412;-66
2021/04/12 04:24:03;;;;;;;7.43;6.83;;;7.20;46.40;;;;;;5051166;28;20921;-67
2021/04/12 04:27:00;;;;;;;7.00;6.40;;;7.20;47.50;;;;;;5051348;28;20682;-68
2021/04/12 04:29:41;;;;;;;8.30;7.60;;;6.90;47.40;;;;;;5007115;28;20975;-67
2021/04/12 04:32:38;;;;;;;8.03;7.23;;;6.80;48.60;;;;;;5051481;28;20837;-69
2021/04/12 04:35:28;;;;;;;7.37;6.87;;;6.80;49.70;;;;;;5050861;28;20429;-68
2021/04/12 04:38:18;;;;;;;7.10;6.50;;;7.00;49.20;;;;;;5051137;28;20417;-67
2021/04/12 04:41:08;;;;;;;6.63;6.13;;;7.10;48.10;;;;;;5051222;28;20408;-69
2021/04/12 04:43:59;;;;;;;7.23;6.73;;;7.20;47.40;;;;;;5051081;28;20767;-68
2021/04/12 04:46:46;;;;;;;6.00;5.60;;;7.20;46.30;;;;;;5054631;28;20469;-68
2021/04/12 04:49:34;;;;;;;6.23;5.83;;;7.10;45.60;;;;;;5053249;28;20938;-68
2021/04/12 04:52:10;;;;;;;6.10;5.70;;;7.00;47.10;;;;;;5053793;28;20450;-68
2021/04/12 04:55:00;;;;;;;5.40;4.90;;;7.00;48.40;;;;;;5050786;28;20409;-69
2021/04/12 04:57:50;;;;;;;4.83;4.53;;;7.00;47.30;;;;;;5049883;28;20409;-69
2021/04/12 05:00:49;;;;;;;5.13;4.83;;;7.00;46.20;;;;;;5050273;28;20825;-69
2021/04/12 05:03:45;;;;;;;16.73;14.73;;;6.90;46.10;;;;;;5050780;28;20409;-68
2021/04/12 05:06:50;;;;;;;5.70;5.30;;;6.70;46.80;;;;;;5050700;28;20428;-68
2021/04/12 05:09:21;;;;;;;5.87;5.47;;;6.50;47.80;;;;;;5050783;28;20468;-68
2021/04/12 05:11:58;;;;;;;6.20;5.80;;;6.60;47.80;;;;;;5050721;28;20417;-68
2021/04/12 05:14:54;;;;;;;6.57;6.10;;;6.70;46.80;;;;;;5050563;28;20405;-68
2021/04/12 05:17:45;;;;;;;6.60;6.20;;;6.80;46.50;;;;;;5053930;28;20402;-68
2021/04/12 05:20:48;;;;;;;7.33;6.83;;;6.80;46.90;;;;;;5055928;28;20513;-67
2021/04/12 05:23:49;;;;;;;7.60;7.07;;;6.90;47.20;;;;;;5060544;28;20425;-68
2021/04/12 05:26:38;;;;;;;7.10;6.60;;;6.70;47.80;;;;;;5060053;28;20527;-67
2021/04/12 05:29:14;;;;;;;7.07;6.60;;;6.70;49.00;;;;;;5054141;28;20457;-68
2021/04/12 05:32:17;;;;;;;8.87;7.93;;;6.70;48.00;;;;;;5054318;28;20394;-67
2021/04/12 05:34:54;;;;;;;8.33;7.73;;;6.70;47.60;;;;;;5054456;28;20479;-69
2021/04/12 05:37:34;;;;;;;8.53;7.73;;;6.60;46.70;;;;;;5056996;28;20479;-67
2021/04/12 05:40:25;;;;;;;7.43;6.93;;;6.70;47.20;;;;;;5063179;28;20412;-68
2021/04/12 05:43:11;;;;;;;8.10;7.50;;;6.70;47.40;;;;;;5062569;28;20478;-68
2021/04/12 05:45:47;;;;;;;7.50;6.97;;;6.80;46.50;;;;;;5058563;28;20825;-68
2021/04/12 05:48:34;;;;;;;8.20;7.50;;;6.70;46.90;;;;;;5069571;28;20463;-69
2021/04/12 05:51:36;;;;;;;7.47;6.97;;;6.80;46.10;;;;;;5064687;28;20417;-69
2021/04/12 05:54:04;;;;;;;8.70;7.90;;;6.80;52.20;;;;;;4988126;28;20430;-69
2021/04/12 05:56:51;;;;;;;8.23;7.53;;;7.80;57.50;;;;;;5073785;28;20498;-70
2021/04/12 06:00:01;;;;;;;7.10;6.50;;;7.80;49.70;;;;;;5059729;28;20424;-69
2021/04/12 06:02:29;;;;;;;7.80;7.20;;;7.30;50.60;;;;;;5033304;28;20428;-69
2021/04/12 06:05:23;;;;;;;8.30;7.70;;;7.70;51.60;;;;;;5053529;28;20936;-69
2021/04/12 06:08:11;;;;;;;8.47;7.77;;;7.90;54.70;;;;;;5053701;28;20456;-69
2021/04/12 06:11:10;;;;;;;8.33;7.73;;;7.50;48.70;;;;;;5063987;28;20417;-68
2021/04/12 06:13:42;;;;;;;8.70;8.10;;;7.40;44.70;;;;;;5073307;28;20459;-67
2021/04/12 06:16:22;;;;;;;9.03;8.33;;;7.20;44.90;;;;;;5072993;28;20452;-68
2021/04/12 06:19:12;;;;;;;8.57;7.97;;;7.00;46.50;;;;;;5073314;28;20405;-68
2021/04/12 06:21:58;;;;;;;7.93;7.33;;;7.10;46.80;;;;;;5073231;28;20912;-67
2021/04/12 06:24:34;;;;;;;9.67;8.87;;;7.30;45.70;;;;;;5031480;28;20516;-67
2021/04/12 06:27:18;;;;;;;9.10;8.40;;;7.20;45.70;;;;;;5068740;28;20816;-68
2021/04/12 06:30:08;;;;;;;8.83;8.17;;;7.30;46.80;;;;;;5052784;28;20468;-69
2021/04/12 06:33:11;;;;;;;9.03;8.20;;;7.40;45.00;;;;;;5057562;28;20413;-64
2021/04/12 06:35:59;;;;;;;8.20;7.60;;;7.30;45.30;;;;;;5062380;28;20466;-68
2021/04/12 06:38:54;;;;;;;8.97;8.17;;;7.40;44.90;;;;;;5061204;28;20409;-68
2021/04/12 06:41:35;;;;;;;8.73;8.03;;;7.40;45.40;;;;;;5071472;28;20987;-68
2021/04/12 06:44:28;;;;;;;8.73;8.03;;;7.50;44.00;;;;;;5056321;28;20612;-68
2021/04/12 06:47:07;;;;;;;8.90;8.10;;;7.00;46.80;;;;;;5055436;28;20482;-68
2021/04/12 06:49:47;;;;;;;9.37;8.67;;;7.10;47.40;;;;;;5072480;28;20871;-68
2021/04/12 06:52:57;;;;;;;8.10;7.23;;;7.00;47.20;;;;;;5072708;28;20496;-68
2021/04/12 06:55:47;;;;;;;9.33;8.40;;;7.30;48.00;;;;;;5051502;28;20912;-66
2021/04/12 06:58:38;;;;;;;8.20;7.47;;;7.50;44.80;;;;;;5058437;28;20430;-68
2021/04/12 07:01:45;;;;;;;8.50;7.90;;;7.40;45.50;;;;;;5064046;28;20421;-69
2021/04/12 07:04:19;;;;;;;9.47;8.60;;;7.40;46.20;;;;;;5057605;28;20437;-67
2021/04/12 07:07:15;;;;;;;10.60;9.50;;;7.50;46.60;;;;;;5057413;28;20426;-67
2021/04/12 07:09:52;;;;;;;9.00;8.20;;;7.20;46.00;;;;;;5052067;28;20549;-68
2021/04/12 07:12:55;;;;;;;9.93;8.50;;;7.30;46.20;;;;;;5052415;28;20402;-68
2021/04/12 07:15:45;;;;;;;8.67;7.97;;;7.30;46.50;;;;;;5051735;28;20928;-68
2021/04/12 07:18:38;;;;;;;9.53;8.47;;;7.10;47.00;;;;;;5052419;28;21043;-68
2021/04/12 07:21:37;;;;;;;9.80;8.83;;;7.00;47.30;;;;;;5052070;28;20481;-68
2021/04/12 07:24:46;;;;;;;10.27;9.37;;;7.20;45.80;;;;;;5051775;28;20430;-68
2021/04/12 07:27:46;;;;;;;9.83;8.83;;;7.30;46.80;;;;;;5051851;28;20411;-67
2021/04/12 07:30:32;;;;;;;8.30;7.60;;;7.20;43.90;;;;;;5051827;28;20414;-67
2021/04/12 07:33:28;;;;;;;8.80;8.10;;;7.20;44.70;;;;;;5052072;28;20904;-67
2021/04/12 07:36:11;;;;;;;10.00;9.10;;;7.20;46.80;;;;;;5051613;28;20415;-67
2021/04/12 07:38:55;;;;;;;9.80;9.00;;;7.40;42.70;;;;;;5051676;28;20449;-66
2021/04/12 07:41:51;;;;;;;9.50;8.60;;;7.30;44.40;;;;;;5051704;28;20557;-68
2021/04/12 07:45:04;;;;;;;9.20;8.40;;;7.30;44.70;;;;;;5052586;28;20410;-68
2021/04/12 07:48:11;;;;;;;8.10;7.50;;;7.30;47.10;;;;;;5055487;28;20490;-68
2021/04/12 07:51:07;;;;;;;9.60;8.80;;;7.40;46.10;;;;;;5051801;28;20512;-68
2021/04/12 07:54:12;;;;;;;12.60;11.40;;;7.50;46.90;;;;;;5071674;28;20498;-67
2021/04/12 07:57:21;;;;;;;10.23;9.43;;;7.50;47.30;;;;;;5060254;28;20900;-68
2021/04/12 08:00:12;;;;;;;10.33;9.43;;;7.50;45.30;;;;;;5071744;28;20408;-68
2021/04/12 08:02:43;;;;;;;11.13;10.13;;;7.50;44.70;;;;;;5071334;28;20436;-68
2021/04/12 08:05:40;;;;;;;12.27;11.20;;;7.50;46.40;;;;;;5071294;28;20844;-67
2021/04/12 08:08:33;;;;;;;11.30;10.30;;;7.30;47.60;;;;;;5071395;28;20486;-67
2021/04/12 08:11:08;;;;;;;12.90;11.80;;;7.40;45.10;;;;;;5071060;28;20412;-69
2021/04/12 08:14:01;;;;;;;11.80;10.60;;;7.30;44.70;;;;;;5071531;28;20887;-67
2021/04/12 08:17:07;;;;;;;11.53;9.37;;;7.50;47.60;;;;;;5071299;28;20447;-67
2021/04/12 08:19:41;;;;;;;13.53;11.60;;;7.60;45.10;;;;;;5071285;28;20483;-68
2021/04/12 08:22:35;;;;;;;11.93;10.90;;;7.60;43.60;;;;;;5071347;28;20408;-69
2021/04/12 08:25:19;;;;;;;12.67;11.47;;;7.80;45.20;;;;;;5066851;28;20473;-69
2021/04/12 08:28:21;;;;;;;12.47;11.17;;;7.60;43.40;;;;;;5051001;28;20409;-68
2021/04/12 08:31:24;;;;;;;12.27;11.27;;;7.80;42.80;;;;;;5068960;28;20456;-69
2021/04/12 08:34:08;;;;;;;11.73;10.50;;;7.90;42.30;;;;;;5064731;28;20418;-68
2021/04/12 08:36:51;;;;;;;11.33;10.37;;;7.80;42.20;;;;;;5062241;28;20452;-69
2021/04/12 08:39:25;;;;;;;13.40;12.10;;;7.70;41.40;;;;;;5059585;28;20955;-69
2021/04/12 08:42:22;;;;;;;11.37;10.50;;;7.60;42.70;;;;;;5051911;28;20437;-68
2021/04/12 08:45:06;;;;;;;12.00;10.77;;;7.80;42.60;;;;;;5050908;28;20417;-68
2021/04/12 08:47:35;;;;;;;13.03;11.90;;;7.80;41.50;;;;;;5053140;28;20450;-69
2021/04/12 08:50:26;;;;;;;11.70;10.60;;;7.70;43.10;;;;;;5055102;28;20934;-69
2021/04/12 08:53:06;;;;;;;11.83;10.93;;;7.90;43.40;;;;;;5059030;28;20435;-69
2021/04/12 08:55:40;;;;;;;12.23;11.07;;;7.90;41.70;;;;;;5067885;28;20438;-69
2021/04/12 08:58:34;;;;;;;11.33;10.23;;;7.80;43.00;;;;;;5065434;28;20423;-70
2021/04/12 09:01:32;;;;;;;10.37;9.47;;;7.80;41.80;;;;;;5074285;28;20425;-69
2021/04/12 09:04:24;;;;;;;10.30;9.30;;;7.80;39.70;;;;;;5054580;28;20467;-69
2021/04/12 09:07:15;;;;;;;11.07;10.03;;;7.80;41.20;;;;;;5056478;28;20429;-70
2021/04/12 09:10:24;;;;;;;12.50;11.40;;;7.80;40.00;;;;;;5059513;28;20469;-69
2021/04/12 09:13:15;;;;;;;22.50;17.17;;;7.90;40.80;;;;;;5071993;28;20650;-69
2021/04/12 09:16:17;;;;;;;11.50;10.43;;;7.80;41.60;;;;;;5072516;28;20441;-70
2021/04/12 09:18:52;;;;;;;12.57;11.17;;;7.90;42.40;;;;;;5072110;28;20437;-68
2021/04/12 09:21:39;;;;;;;10.07;9.27;;;8.10;40.90;;;;;;5054409;28;20413;-68
2021/04/12 09:24:23;;;;;;;10.27;9.20;;;7.80;40.80;;;;;;5064778;28;20437;-69
2021/04/12 09:27:16;;;;;;;10.73;9.83;;;8.00;41.00;;;;;;5058529;28;20477;-69
2021/04/12 09:30:11;;;;;;;10.73;9.80;;;8.10;41.00;;;;;;5064080;28;20462;-69
2021/04/12 09:32:54;;;;;;;8.53;7.93;;;8.10;39.10;;;;;;5060994;28;20409;-69
2021/04/12 09:35:49;;;;;;;9.50;8.60;;;8.20;38.40;;;;;;5061455;28;20426;-68
2021/04/12 09:39:01;;;;;;;10.80;9.90;;;8.30;39.20;;;;;;5074097;28;20418;-69
2021/04/12 09:41:35;;;;;;;9.20;8.30;;;8.30;38.70;;;;;;5073588;28;20417;-69
2021/04/12 09:44:33;;;;;;;9.23;8.37;;;8.40;37.80;;;;;;5073898;28;20461;-68
2021/04/12 09:47:17;;;;;;;9.83;8.93;;;8.40;38.00;;;;;;5074017;28;20433;-69
2021/04/12 09:50:02;;;;;;;8.20;7.50;;;8.50;37.10;;;;;;5073076;28;20460;-68
2021/04/12 09:53:01;;;;;;;8.17;7.30;;;8.60;36.20;;;;;;5053721;28;20414;-68
2021/04/12 09:55:59;;;;;;;7.60;7.00;;;8.60;33.40;;;;;;5053661;28;20454;-69
2021/04/12 09:58:55;;;;;;;7.13;6.43;;;8.40;33.10;;;;;;5053903;28;20408;-69
2021/04/12 10:01:48;;;;;;;6.10;5.53;;;8.40;34.60;;;;;;5053423;28;20418;-69
2021/04/12 10:04:40;;;;;;;6.20;5.70;;;8.40;33.70;;;;;;5053338;28;20406;-68
2021/04/12 10:07:12;;;;;;;7.30;6.30;;;8.50;33.90;;;;;;5053499;28;20937;-67
2021/04/12 10:10:25;;;;;;;6.67;6.10;;;8.50;34.40;;;;;;5070947;28;20464;-68
2021/04/12 10:13:14;;;;;;;7.10;6.47;;;8.60;32.40;;;;;;5050191;28;21049;-66
2021/04/12 10:15:52;;;;;;;6.83;6.33;;;8.50;31.40;;;;;;5053217;28;20483;-69
2021/04/12 10:18:40;;;;;;;7.00;6.53;;;8.60;32.30;;;;;;5053316;28;20410;-67
2021/04/12 10:21:25;;;;;;;6.47;5.87;;;8.60;32.80;;;;;;5053319;28;20483;-69
2021/04/12 10:24:11;;;;;;;5.73;5.13;;;8.60;30.00;;;;;;5062024;28;20998;-69
2021/04/12 10:26:45;;;;;;;4.27;4.00;;;8.70;30.10;;;;;;5073081;28;20433;-70
2021/04/12 10:29:28;;;;;;;5.07;4.77;;;8.70;28.80;;;;;;5067060;28;20824;-70
2021/04/12 10:32:02;;;;;;;7.77;5.97;;;8.60;29.00;;;;;;5053112;28;20406;-69
2021/04/12 10:34:36;;;;;;;5.17;4.87;;;8.70;30.00;;;;;;5052791;28;20407;-69
2021/04/12 10:37:38;;;;;;;5.03;4.63;;;8.90;28.60;;;;;;5068418;28;20452;-68
2021/04/12 10:40:31;;;;;;;4.70;4.30;;;8.90;28.00;;;;;;5072939;28;20784;-68
2021/04/12 10:43:11;;;;;;;4.80;4.40;;;9.00;27.80;;;;;;5072780;28;20406;-68
2021/04/12 10:46:14;;;;;;;5.10;4.67;;;9.10;27.10;;;;;;5072593;28;20420;-68
2021/04/12 10:48:49;;;;;;;4.70;4.30;;;9.30;28.00;;;;;;5071375;28;20503;-70
2021/04/12 10:51:44;;;;;;;21.97;15.50;;;9.40;26.20;;;;;;5072589;28;20436;-71
2021/04/12 10:54:50;;;;;;;5.23;4.73;;;9.30;26.60;;;;;;5063023;28;20765;-70
2021/04/12 10:57:25;;;;;;;16.23;4.90;;;9.30;24.40;;;;;;4969515;28;20520;-66
2021/04/12 10:59:53;;;;;;;8.00;6.90;;;9.30;25.00;;;;;;5048284;28;20432;-67
2021/04/12 11:02:33;;;;;;;7.27;6.53;;;9.30;25.50;;;;;;5063539;28;20919;-67
2021/04/12 11:05:10;;;;;;;7.30;6.03;;;9.30;26.10;;;;;;5068225;28;20448;-66
2021/04/12 11:07:45;;;;;;;5.70;4.77;;;9.30;25.70;;;;;;5052682;28;20770;-67
2021/04/12 11:10:32;;;;;;;4.73;4.33;;;9.10;25.80;;;;;;5052273;28;20417;-69
2021/04/12 11:13:11;;;;;;;4.83;4.53;;;8.90;26.80;;;;;;5052138;28;20417;-67
2021/04/12 11:15:55;;;;;;;5.57;5.17;;;8.80;26.70;;;;;;5066878;28;20449;-66
2021/04/12 11:18:51;;;;;;;3.77;3.50;;;9.00;28.70;;;;;;5071940;28;20433;-65
2021/04/12 11:21:20;;;;;;;4.80;4.40;;;9.20;26.50;;;;;;5072096;28;20973;-67
2021/04/12 11:24:14;;;;;;;4.87;4.43;;;9.20;26.70;;;;;;5059960;28;20517;-67
2021/04/12 11:27:07;;;;;;;4.03;3.53;;;9.30;26.90;;;;;;5052054;28;20462;-68
2021/04/12 11:29:38;;;;;;;4.47;4.07;;;9.20;26.40;;;;;;5051933;28;20508;-68
2021/04/12 11:32:36;;;;;;;5.23;4.80;;;9.30;26.90;;;;;;5052010;28;20403;-66
2021/04/12 11:35:07;;;;;;;5.83;5.33;;;9.30;27.10;;;;;;5051411;28;20482;-66
2021/04/12 11:38:11;;;;;;;3.40;3.13;;;9.20;25.90;;;;;;5051865;28;20405;-65
2021/04/12 11:41:04;;;;;;;3.93;3.60;;;9.30;25.40;;;;;;5051971;28;20402;-67
2021/04/12 11:43:34;;;;;;;2.97;2.77;;;9.40;26.30;;;;;;5051755;28;20402;-67
2021/04/12 11:46:17;;;;;;;4.27;4.07;;;9.50;24.50;;;;;;5051625;28;20766;-67
2021/04/12 11:48:47;;;;;;;3.07;2.87;;;9.60;23.80;;;;;;5051652;28;20965;-66
2021/04/12 11:51:33;;;;;;;3.60;2.80;;;9.70;21.20;;;;;;5051582;28;20399;-66
2021/04/12 11:54:03;;;;;;;4.93;2.90;;;9.80;21.50;;;;;;5051404;28;20394;-66
2021/04/12 11:57:06;;;;;;;3.60;3.30;;;10.00;21.80;;;;;;5051427;28;20422;-67
2021/04/12 12:00:02;;;;;;;3.90;3.60;;;10.10;22.20;;;;;;5010714;28;20422;-68
2021/04/12 12:02:48;;;;;;;3.53;3.13;;;10.30;20.90;;;;;;5051653;28;20410;-65
2021/04/12 12:05:31;;;;;;;3.40;3.10;;;10.30;20.30;;;;;;5051013;28;20422;-67
2021/04/12 12:08:06;;;;;;;4.50;4.10;;;10.10;21.40;;;;;;5050182;28;20407;-68
2021/04/12 12:10:47;;;;;;;3.57;3.30;;;10.00;21.30;;;;;;5051775;28;20406;-67
2021/04/12 12:13:37;;;;;;;4.30;4.00;;;10.00;21.10;;;;;;5052923;28;20428;-66
2021/04/12 12:16:48;;;;;;;4.07;3.10;;;10.10;21.70;;;;;;5057312;28;20423;-67
2021/04/12 12:19:37;;;;;;;4.03;3.73;;;9.90;21.80;;;;;;5055260;28;20429;-66
2021/04/12 12:22:43;;;;;;;4.57;4.27;;;9.90;22.00;;;;;;5058617;28;20417;-69
2021/04/12 12:25:20;;;;;;;4.20;3.80;;;9.90;23.00;;;;;;5058036;28;20960;-66
2021/04/12 12:28:02;;;;;;;3.83;3.53;;;9.80;22.60;;;;;;5062100;28;20857;-66
2021/04/12 12:30:59;;;;;;;7.20;3.57;;;9.70;23.00;;;;;;5063625;28;20489;-68
2021/04/12 12:33:50;;;;;;;3.93;3.63;;;9.70;22.90;;;;;;5062963;28;20437;-68
2021/04/12 12:36:24;;;;;;;3.53;3.23;;;9.90;21.70;;;;;;5045194;28;20454;-68
2021/04/12 12:39:01;;;;;;;3.37;3.17;;;9.90;21.70;;;;;;5064809;28;20465;-69
2021/04/12 12:41:34;;;;;;;3.17;2.97;;;10.00;19.60;;;;;;5064185;28;20417;-66
2021/04/12 12:44:04;;;;;;;2.93;2.83;;;9.90;19.70;;;;;;5074246;28;20498;-67
2021/04/12 12:46:33;;;;;;;2.90;2.70;;;9.90;20.40;;;;;;5074916;28;20429;-66
2021/04/12 12:49:08;;;;;;;4.03;3.73;;;9.90;19.80;;;;;;5074684;28;20975;-66
2021/04/12 12:51:58;;;;;;;3.23;2.97;;;9.80;20.90;;;;;;5074224;28;20405;-66
2021/04/12 12:54:44;;;;;;;2.60;2.40;;;9.90;19.50;;;;;;5064639;28;20414;-66
2021/04/12 12:57:36;;;;;;;2.43;2.33;;;10.10;17.70;;;;;;5054297;28;20417;-68
2021/04/12 13:00:07;;;;;;;3.10;2.80;;;10.30;17.20;;;;;;5054855;28;20492;-67
2021/04/12 13:02:37;;;;;;;3.13;2.90;;;10.20;17.70;;;;;;5060758;28;20491;-68
2021/04/12 13:05:09;;;;;;;3.00;2.80;;;10.10;18.30;;;;;;5073023;28;20429;-67
2021/04/12 13:07:36;;;;;;;2.80;2.63;;;10.30;20.10;;;;;;5059064;28;20953;-67
2021/04/12 13:10:31;;;;;;;2.73;2.53;;;10.30;17.70;;;;;;5054374;28;20501;-68
2021/04/12 13:12:57;;;;;;;4.83;3.30;;;10.40;19.10;;;;;;5054493;28;20410;-67
2021/04/12 13:15:34;;;;;;;3.17;2.97;;;10.60;19.30;;;;;;5054219;28;20806;-66
2021/04/12 13:18:21;;;;;;;2.93;2.73;;;10.70;17.90;;;;;;5061974;28;20228;-67
2021/04/12 13:20:48;;;;;;;2.80;2.60;;;10.60;16.00;;;;;;5056358;28;20410;-68
2021/04/12 13:23:19;;;;;;;5.17;2.73;;;10.50;17.00;;;;;;5074257;28;20422;-70
2021/04/12 13:25:53;;;;;;;3.40;3.10;;;10.50;18.20;;;;;;5073809;28;20422;-67
2021/04/12 13:28:41;;;;;;;2.70;2.50;;;10.50;17.40;;;;;;5074140;28;20611;-67
2021/04/12 13:31:12;;;;;;;2.70;2.50;;;10.50;18.00;;;;;;5074062;28;20413;-67
2021/04/12 13:33:41;;;;;;;2.60;2.40;;;10.60;17.70;;;;;;5074109;28;20406;-68
2021/04/12 13:36:38;;;;;;;3.10;2.77;;;10.50;15.70;;;;;;5074298;28;20497;-67
2021/04/12 13:39:09;;;;;;;3.17;2.90;;;10.50;16.40;;;;;;5063887;28;20458;-67
2021/04/12 13:41:45;;;;;;;5.73;3.13;;;10.60;16.60;;;;;;5053863;28;20406;-68
2021/04/12 13:44:18;;;;;;;3.60;3.30;;;10.60;16.50;;;;;;5053642;28;20414;-67
2021/04/12 13:47:15;;;;;;;3.00;2.90;;;10.60;17.30;;;;;;5053607;28;20518;-67
2021/04/12 13:49:59;;;;;;;3.50;2.80;;;10.50;16.70;;;;;;5062641;28;20897;-67
2021/04/12 13:52:28;;;;;;;2.80;2.70;;;10.40;17.80;;;;;;5073654;28;20398;-65
2021/04/12 13:54:59;;;;;;;3.23;3.03;;;10.40;19.00;;;;;;5073296;28;20901;-68
2021/04/12 13:57:35;;;;;;;5.90;4.00;;;10.30;17.80;;;;;;5073580;28;20509;-68
2021/04/12 14:00:07;;;;;;;2.83;2.50;;;10.40;18.40;;;;;;5060052;28;20945;-66
2021/04/12 14:02:38;;;;;;;2.97;2.77;;;10.50;17.90;;;;;;5053429;28;20866;-68
2021/04/12 14:05:12;;;;;;;3.47;3.27;;;10.20;18.40;;;;;;5053098;28;20922;-68
2021/04/12 14:07:48;;;;;;;2.60;2.40;;;10.30;18.70;;;;;;5052121;28;20423;-68
2021/04/12 14:10:27;;;;;;;3.30;2.70;;;10.20;18.50;;;;;;5061344;28;20421;-68
2021/04/12 14:13:18;;;;;;;2.90;2.80;;;10.40;18.40;;;;;;5072674;28;20986;-68
2021/04/12 14:16:19;;;;;;;3.27;3.07;;;10.40;18.40;;;;;;5048203;28;20503;-67
2021/04/12 14:18:55;;;;;;;3.23;2.50;;;10.40;18.70;;;;;;5073325;28;20763;-67
2021/04/12 14:21:26;;;;;;;2.80;2.60;;;10.30;19.50;;;;;;5060495;28;20461;-67
2021/04/12 14:23:59;;;;;;;4.90;3.70;;;10.30;19.60;;;;;;5061636;28;20533;-67
2021/04/12 14:26:33;;;;;;;2.90;2.70;;;10.20;19.70;;;;;;5066363;28;20438;-67
2021/04/12 14:29:08;;;;;;;3.30;3.10;;;10.20;19.80;;;;;;5059726;28;20461;-68
2021/04/12 14:31:37;;;;;;;3.20;3.00;;;10.10;20.10;;;;;;5062676;28;20468;-67
2021/04/12 14:34:08;;;;;;;6.80;3.20;;;10.10;19.80;;;;;;5052776;28;20418;-68